Time;durP1;ratioP1;P1;durP2;ratioP2;P2;SDS_P1;SDS_P2;PMS_P1;PMS_P2;Temp;Humidity;BMP_temperature;BMP_pressure;BME280_temperature;BME280_humidity;BME280_pressure;Samples;Min_cycle;Max_cycle;Signal;HPM_P1;HPM_P2
2024/01/03 00:01:20;;;;;;;11.85;7.40;;;;;;;7.03;93.53;97812.50;5063492;28;20044;-69
2024/01/03 00:03:46;;;;;;;11.82;8.07;;;;;;;6.98;94.14;97808.72;5066218;28;20574;-71
2024/01/03 00:06:11;;;;;;;12.90;7.80;;;;;;;6.72;95.48;97810.16;5064710;28;20043;-70
2024/01/03 00:08:38;;;;;;;17.77;8.73;;;;;;;6.80;95.60;97801.69;5058285;28;20028;-71
2024/01/03 00:11:06;;;;;;;11.85;7.70;;;;;;;6.70;95.44;97775.09;5049286;28;20123;-69
2024/01/03 00:13:37;;;;;;;11.25;6.57;;;;;;;6.96;94.56;97803.69;5069534;28;20712;-71
2024/01/03 00:16:09;;;;;;;12.30;6.70;;;;;;;7.04;94.42;97795.22;5063953;28;20059;-71
2024/01/03 00:18:54;;;;;;;10.05;6.60;;;;;;;7.06;93.89;97775.22;5071615;28;20021;-71
2024/01/03 00:21:25;;;;;;;13.05;6.95;;;;;;;6.91;94.36;97743.84;5048200;28;20056;-71
2024/01/03 00:23:58;;;;;;;10.65;6.63;;;;;;;7.14;93.87;97764.97;5067815;28;20052;-71
2024/01/03 00:26:24;;;;;;;10.00;6.85;;;;;;;7.21;93.72;97758.28;5068174;28;20502;-72
2024/01/03 00:28:50;;;;;;;11.43;6.93;;;;;;;7.23;93.77;97742.63;5065311;28;20043;-69
2024/01/03 00:31:37;;;;;;;9.68;6.47;;;;;;;7.27;94.86;97754.31;5065881;28;20028;-72
2024/01/03 00:34:26;;;;;;;12.20;7.03;;;;;;;7.24;95.09;97734.69;5064265;28;20025;-72
2024/01/03 00:36:54;;;;;;;10.65;6.93;;;;;;;7.24;94.11;97737.28;5070334;28;20035;-72
2024/01/03 00:39:46;;;;;;;9.95;6.90;;;;;;;7.25;94.50;97730.38;5047324;28;20701;-72
2024/01/03 00:42:14;;;;;;;11.90;7.35;;;;;;;7.17;94.81;97740.59;5064726;28;20047;-72
2024/01/03 00:44:39;;;;;;;8.93;6.45;;;;;;;7.04;93.76;97705.56;5052711;28;20821;-70
2024/01/03 00:47:05;;;;;;;12.98;7.65;;;;;;;6.93;94.64;97737.56;5054681;28;20024;-69
2024/01/03 00:49:30;;;;;;;12.43;7.47;;;;;;;6.70;94.62;97682.88;5068248;28;20121;-70
2024/01/03 00:51:56;;;;;;;9.95;6.80;;;;;;;7.02;95.19;97733.31;5068859;28;20039;-73
2024/01/03 00:54:24;;;;;;;11.45;6.72;;;;;;;7.07;95.83;97741.47;5064722;28;20039;-72
2024/01/03 00:56:50;;;;;;;11.30;6.65;;;;;;;7.12;96.31;97739.28;5056088;28;20025;-71
2024/01/03 00:59:18;;;;;;;10.43;6.75;;;;;;;6.98;95.66;97718.25;5065489;28;20059;-71
2024/01/03 01:01:44;;;;;;;11.57;7.18;;;;;;;7.10;95.68;97751.53;5070638;28;20068;-70
2024/01/03 01:04:10;;;;;;;10.88;6.82;;;;;;;6.97;94.98;97752.81;5049772;28;20854;-72
2024/01/03 01:06:41;;;;;;;11.73;6.85;;;;;;;7.07;94.55;97754.38;5071605;28;20034;-71
2024/01/03 01:09:08;;;;;;;11.15;6.70;;;;;;;7.10;96.18;97751.53;5054266;28;20812;-70
2024/01/03 01:11:34;;;;;;;12.10;7.28;;;;;;;7.06;96.55;97752.78;5058543;28;20032;-71
2024/01/03 01:13:59;;;;;;;10.52;7.15;;;;;;;7.04;96.26;97751.28;5066738;28;20036;-72
2024/01/03 01:16:25;;;;;;;10.23;7.32;;;;;;;6.90;96.43;97743.03;5060050;28;20089;-73
2024/01/03 01:18:50;;;;;;;11.10;6.78;;;;;;;7.00;95.23;97734.44;5068938;28;20020;-68
2024/01/03 01:21:20;;;;;;;11.23;6.82;;;;;;;7.07;96.06;97736.28;5051369;28;20125;-71
2024/01/03 01:23:48;;;;;;;10.23;6.80;;;;;;;7.21;96.41;97740.19;5056161;28;20036;-71
2024/01/03 01:26:16;;;;;;;10.75;6.45;;;;;;;6.88;96.19;97713.94;5074240;28;20076;-69
2024/01/03 01:28:41;;;;;;;9.85;7.03;;;;;;;6.88;95.75;97747.53;5072993;28;20072;-71
2024/01/03 01:31:07;;;;;;;10.20;6.78;;;;;;;6.64;97.42;97740.28;5050031;28;20036;-71
2024/01/03 01:33:32;;;;;;;11.43;6.70;;;;;;;6.69;97.19;97750.19;5071310;28;20016;-70
2024/01/03 01:36:01;;;;;;;10.75;6.63;;;;;;;6.73;97.53;97757.53;5071793;28;20036;-67
2024/01/03 01:38:29;;;;;;;10.15;6.45;;;;;;;6.58;96.83;97709.84;5066058;28;20020;-69
2024/01/03 01:40:54;;;;;;;10.68;6.72;;;;;;;6.79;96.12;97739.81;5070837;28;20053;-70
2024/01/03 01:43:22;;;;;;;8.98;6.43;;;;;;;6.89;95.90;97750.94;5048762;28;20097;-67
2024/01/03 01:45:50;;;;;;;10.57;7.25;;;;;;;6.74;95.74;97717.00;5056363;28;20051;-69
2024/01/03 01:48:15;;;;;;;10.77;6.90;;;;;;;6.94;94.57;97748.75;5071148;28;20028;-71
2024/01/03 01:50:41;;;;;;;10.13;6.50;;;;;;;6.99;94.21;97748.31;5053978;28;20032;-71
2024/01/03 01:53:06;;;;;;;10.18;6.85;;;;;;;6.97;93.34;97745.06;5069800;28;20066;-71
2024/01/03 01:55:37;;;;;;;9.32;6.28;;;;;;;7.02;92.77;97748.03;5051729;28;20374;-73
2024/01/03 01:58:03;;;;;;;9.55;5.95;;;;;;;7.01;92.15;97736.88;5072392;28;20748;-73
2024/01/03 02:00:29;;;;;;;12.23;6.57;;;;;;;7.10;94.06;97750.69;5074845;28;20044;-70
2024/01/03 02:02:56;;;;;;;9.70;6.13;;;;;;;7.10;95.04;97751.53;5055602;28;20063;-70
2024/01/03 02:05:24;;;;;;;9.65;6.20;;;;;;;7.16;95.29;97742.38;5051974;28;20802;-70
2024/01/03 02:07:52;;;;;;;10.23;6.53;;;;;;;7.24;96.60;97749.41;5068073;28;20040;-68
2024/01/03 02:10:19;;;;;;;9.80;6.60;;;;;;;6.88;95.83;97703.63;5068422;28;20028;-70
2024/01/03 02:12:47;;;;;;;8.98;6.10;;;;;;;6.99;96.04;97735.38;5069632;28;20051;-69
2024/01/03 02:15:13;;;;;;;8.27;6.03;;;;;;;7.05;96.48;97727.88;5057998;28;20047;-71
2024/01/03 02:17:38;;;;;;;9.20;6.38;;;;;;;7.08;95.26;97719.00;5064553;28;20655;-70
2024/01/03 02:20:07;;;;;;;9.02;5.88;;;;;;;7.08;94.05;97714.66;5051698;28;20054;-71
2024/01/03 02:22:34;;;;;;;13.07;6.40;;;;;;;7.06;93.52;97708.84;5072827;28;20020;-72
2024/01/03 02:25:00;;;;;;;10.18;6.07;;;;;;;7.06;92.68;97701.09;5069534;28;20052;-70
2024/01/03 02:27:25;;;;;;;8.68;5.82;;;;;;;7.21;92.49;97703.16;5056589;28;20051;-72
2024/01/03 02:29:50;;;;;;;10.88;6.30;;;;;;;7.24;91.79;97711.44;5072350;28;20036;-69
2024/01/03 02:32:16;;;;;;;9.73;6.03;;;;;;;7.21;92.48;97701.41;5066358;28;20024;-71
2024/01/03 02:34:43;;;;;;;10.32;6.50;;;;;;;7.18;92.26;97683.59;5070159;28;20441;-73
2024/01/03 02:37:13;;;;;;;9.73;6.50;;;;;;;7.10;92.53;97699.81;5070722;28;20024;-74
2024/01/03 02:39:43;;;;;;;10.52;6.28;;;;;;;6.91;92.80;97699.91;5060038;28;20048;-72
2024/01/03 02:42:08;;;;;;;8.82;6.25;;;;;;;6.79;93.50;97704.47;5059404;28;20483;-71
2024/01/03 02:44:34;;;;;;;9.57;6.20;;;;;;;6.80;94.00;97698.34;5053586;28;20059;-76
2024/01/03 02:46:59;;;;;;;10.48;6.30;;;;;;;6.77;94.22;97690.06;5059031;28;20122;-73
2024/01/03 02:49:32;;;;;;;9.75;6.47;;;;;;;6.91;93.97;97695.56;5078668;28;20104;-72
2024/01/03 02:52:00;;;;;;;9.23;6.05;;;;;;;6.98;93.92;97702.75;5065041;28;20028;-72
2024/01/03 02:54:28;;;;;;;9.90;6.30;;;;;;;6.64;93.54;97649.06;5068301;28;20112;-68
2024/01/03 02:56:54;;;;;;;9.73;6.00;;;;;;;6.82;93.64;97699.00;5069954;28;20116;-70
2024/01/03 02:59:20;;;;;;;10.20;6.20;;;;;;;6.78;93.86;97691.69;5059064;28;20105;-70
2024/01/03 03:01:45;;;;;;;10.63;6.13;;;;;;;6.65;95.14;97687.66;5054565;28;20024;-71
2024/01/03 03:04:15;;;;;;;9.18;5.40;;;;;;;6.38;94.95;97656.66;5071242;28;20114;-72
2024/01/03 03:06:41;;;;;;;9.60;5.85;;;;;;;6.56;95.07;97679.97;5060247;28;20115;-71
2024/01/03 03:09:06;;;;;;;8.60;5.53;;;;;;;6.58;95.65;97702.09;5064695;28;20070;-69
2024/01/03 03:11:39;;;;;;;8.30;5.47;;;;;;;6.42;95.57;97684.59;5066333;28;20112;-69
2024/01/03 03:14:07;;;;;;;8.23;5.45;;;;;;;6.53;95.64;97675.88;5059698;28;20487;-72
2024/01/03 03:16:35;;;;;;;9.18;5.65;;;;;;;6.31;95.17;97664.94;5055236;28;20035;-72
2024/01/03 03:19:00;;;;;;;9.02;5.30;;;;;;;6.37;96.11;97686.00;5058083;28;20036;-71
2024/01/03 03:21:28;;;;;;;9.60;5.90;;;;;;;6.33;96.43;97688.88;5063516;28;20092;-71
2024/01/03 03:23:53;;;;;;;9.98;6.22;;;;;;;6.27;96.71;97709.25;5071176;28;20043;-69
2024/01/03 03:26:19;;;;;;;10.20;5.80;;;;;;;6.19;97.11;97697.06;5067408;28;20029;-73
2024/01/03 03:28:46;;;;;;;9.35;5.85;;;;;;;6.30;96.97;97686.56;5058182;28;20434;-70
2024/01/03 03:31:12;;;;;;;9.18;5.72;;;;;;;6.20;96.54;97684.97;5068734;28;20028;-73
2024/01/03 03:33:40;;;;;;;9.98;5.60;;;;;;;6.31;95.90;97677.84;5060524;28;20046;-72
2024/01/03 03:36:15;;;;;;;8.48;5.53;;;;;;;6.31;96.28;97679.63;5070907;28;20085;-70
2024/01/03 03:38:40;;;;;;;8.20;5.68;;;;;;;6.02;96.65;97646.13;5059333;28;20045;-68
2024/01/03 03:41:12;;;;;;;8.38;5.65;;;;;;;6.24;96.44;97673.38;5072719;28;20433;-68
2024/01/03 03:43:39;;;;;;;12.77;6.20;;;;;;;6.15;96.40;97685.34;5053137;28;20427;-69
2024/01/03 03:46:08;;;;;;;8.98;5.68;;;;;;;6.26;95.99;97672.31;5058723;28;20119;-69
2024/01/03 03:48:34;;;;;;;10.23;5.78;;;;;;;6.20;95.47;97672.03;5065777;28;20035;-72
2024/01/03 03:51:00;;;;;;;10.65;5.38;;;;;;;6.07;94.86;97657.66;5054617;28;20044;-73
2024/01/03 03:53:26;;;;;;;8.45;5.18;;;;;;;6.24;94.98;97652.72;5065455;28;20032;-72
2024/01/03 03:55:51;;;;;;;8.82;4.97;;;;;;;6.35;95.02;97650.81;5072491;28;20047;-71
2024/01/03 03:58:19;;;;;;;11.45;5.22;;;;;;;6.33;95.11;97650.16;5071469;28;20039;-70
2024/01/03 04:00:46;;;;;;;9.10;5.20;;;;;;;6.40;95.55;97652.16;5056545;28;20028;-72
2024/01/03 04:03:12;;;;;;;8.35;5.35;;;;;;;6.40;95.85;97644.41;5068901;28;20028;-72
2024/01/03 04:05:40;;;;;;;7.97;4.90;;;;;;;6.45;95.83;97637.84;5053884;28;20024;-69
2024/01/03 04:08:05;;;;;;;7.63;4.90;;;;;;;6.45;95.61;97640.44;5064194;28;20050;-69
2024/01/03 04:10:31;;;;;;;8.80;4.72;;;;;;;6.13;96.60;97602.09;5059163;28;20482;-71
2024/01/03 04:12:59;;;;;;;9.45;5.38;;;;;;;6.32;97.44;97645.91;5056237;28;20063;-72
2024/01/03 04:15:25;;;;;;;8.18;4.65;;;;;;;6.33;97.04;97659.63;5070026;28;20109;-73
2024/01/03 04:17:51;;;;;;;8.00;4.60;;;;;;;6.33;97.34;97654.47;5052149;28;20124;-69
2024/01/03 04:20:16;;;;;;;8.07;4.68;;;;;;;6.19;97.09;97642.00;5072027;28;20033;-70
2024/01/03 04:22:43;;;;;;;8.98;4.80;;;;;;;5.92;98.39;97623.72;5054556;28;20390;-69
2024/01/03 04:25:09;;;;;;;7.10;4.47;;;;;;;6.12;97.96;97659.84;5055105;28;20851;-70
2024/01/03 04:27:38;;;;;;;7.65;4.90;;;;;;;6.09;97.92;97665.28;5071663;28;20040;-69
2024/01/03 04:30:06;;;;;;;8.30;4.55;;;;;;;5.93;99.23;97670.97;5072960;28;20063;-71
2024/01/03 04:32:32;;;;;;;7.18;4.22;;;;;;;5.98;98.97;97671.41;5063454;28;21167;-72
2024/01/03 04:34:59;;;;;;;7.00;4.57;;;;;;;5.99;98.96;97667.06;5072692;28;20032;-68
2024/01/03 04:37:28;;;;;;;7.78;4.57;;;;;;;6.00;98.98;97672.09;5052039;28;20537;-70
2024/01/03 04:39:56;;;;;;;7.68;4.47;;;;;;;6.04;98.99;97657.13;5046176;28;20021;-71
2024/01/03 04:42:21;;;;;;;7.93;4.35;;;;;;;6.00;98.55;97664.34;5067831;28;20044;-71
2024/01/03 04:44:47;;;;;;;7.68;4.88;;;;;;;5.55;99.43;97629.63;5080298;28;20072;-72
2024/01/03 04:47:12;;;;;;;7.50;4.50;;;;;;;5.65;100.00;97668.28;5052620;28;20391;-70
2024/01/03 04:49:37;;;;;;;8.77;4.47;;;;;;;5.45;100.00;97651.19;5076159;28;20036;-71
2024/01/03 04:52:03;;;;;;;7.47;4.30;;;;;;;5.58;100.00;97680.09;5057918;28;20160;-73
2024/01/03 04:54:29;;;;;;;8.75;4.45;;;;;;;5.52;100.00;97678.88;5056355;28;20031;-69
2024/01/03 04:56:54;;;;;;;8.43;4.07;;;;;;;5.48;100.00;97677.53;5061794;28;20052;-72
2024/01/03 04:59:22;;;;;;;8.60;5.03;;;;;;;5.66;99.48;97690.56;5053659;28;20131;-72
2024/01/03 05:01:47;;;;;;;8.48;4.32;;;;;;;5.82;99.23;97697.72;5071330;28;20091;-69
2024/01/03 05:04:15;;;;;;;6.93;4.25;;;;;;;5.80;98.92;97714.31;5074150;28;20042;-73
2024/01/03 05:06:41;;;;;;;8.75;5.10;;;;;;;5.68;97.96;97670.59;5056274;28;21276;-74
2024/01/03 05:09:06;;;;;;;7.35;4.55;;;;;;;5.76;98.94;97719.72;5055369;28;20031;-73
2024/01/03 05:11:32;;;;;;;9.90;4.63;;;;;;;5.50;98.62;97644.69;5067362;28;20035;-72
2024/01/03 05:13:58;;;;;;;7.25;4.50;;;;;;;5.67;99.43;97704.25;5072781;28;20032;-72
2024/01/03 05:16:23;;;;;;;7.30;4.45;;;;;;;5.67;98.49;97674.13;5056825;28;20031;-71
2024/01/03 05:18:51;;;;;;;8.32;4.32;;;;;;;5.71;98.43;97684.97;5074447;28;20039;-71
2024/01/03 05:21:16;;;;;;;8.27;4.18;;;;;;;5.68;98.26;97693.81;5077590;28;20060;-73
2024/01/03 05:23:44;;;;;;;7.75;4.40;;;;;;;5.71;98.42;97710.78;5055425;28;20709;-69
2024/01/03 05:26:09;;;;;;;9.60;4.30;;;;;;;5.68;97.90;97685.28;5073054;28;20043;-71
2024/01/03 05:28:37;;;;;;;8.35;4.28;;;;;;;5.79;97.84;97687.72;5060861;28;20028;-70
2024/01/03 05:31:03;;;;;;;8.15;4.10;;;;;;;5.44;97.76;97622.03;5065288;28;20400;-70
2024/01/03 05:33:28;;;;;;;7.55;3.90;;;;;;;5.80;97.34;97660.94;5055381;28;20376;-69
2024/01/03 05:35:54;;;;;;;7.78;4.00;;;;;;;5.77;97.80;97703.31;5075949;28;20028;-70
2024/01/03 05:38:20;;;;;;;7.05;4.22;;;;;;;5.54;98.63;97671.00;5054080;28;20172;-68
2024/01/03 05:40:46;;;;;;;6.88;3.67;;;;;;;5.51;99.30;97671.28;5066457;28;20036;-71
2024/01/03 05:43:12;;;;;;;11.52;4.90;;;;;;;5.67;97.99;97678.47;5070998;28;20657;-72
2024/01/03 05:45:40;;;;;;;7.68;4.25;;;;;;;5.54;98.79;97634.91;5070642;28;20052;-71
2024/01/03 05:48:06;;;;;;;6.68;3.80;;;;;;;5.81;98.52;97678.06;5065399;28;20028;-70
2024/01/03 05:50:31;;;;;;;7.25;3.53;;;;;;;5.81;98.47;97685.81;5053229;28;20736;-72
2024/01/03 05:52:56;;;;;;;6.80;3.63;;;;;;;5.90;98.38;97702.22;5070789;28;20050;-71
2024/01/03 05:55:22;;;;;;;6.85;3.97;;;;;;;5.61;98.62;97645.50;5067502;28;20332;-71
2024/01/03 05:57:47;;;;;;;6.78;3.80;;;;;;;5.70;97.86;97667.91;5057459;28;20040;-71
2024/01/03 06:00:15;;;;;;;7.50;3.92;;;;;;;5.74;98.67;97682.13;5048808;28;20442;-72
2024/01/03 06:02:43;;;;;;;7.80;4.10;;;;;;;5.82;99.01;97715.00;5049200;28;20042;-67
2024/01/03 06:05:12;;;;;;;7.82;4.00;;;;;;;5.68;98.94;97690.44;5072344;28;20035;-69
2024/01/03 06:07:38;;;;;;;7.40;4.03;;;;;;;5.65;99.49;97706.16;5054507;28;20032;-70
2024/01/03 06:10:04;;;;;;;5.97;3.55;;;;;;;5.76;99.11;97711.19;5056848;28;20036;-71
2024/01/03 06:12:29;;;;;;;6.22;3.60;;;;;;;5.45;98.65;97657.16;5052338;28;20044;-71
2024/01/03 06:14:55;;;;;;;8.10;3.78;;;;;;;5.86;98.70;97701.69;5057820;28;20459;-74
2024/01/03 06:17:23;;;;;;;6.78;3.60;;;;;;;5.88;98.11;97735.91;5075909;28;20040;-72
2024/01/03 06:19:55;;;;;;;7.05;3.88;;;;;;;5.72;98.29;97697.75;5074176;28;20428;-71
2024/01/03 06:22:20;;;;;;;7.60;3.40;;;;;;;5.67;98.69;97732.63;5063372;28;20044;-72
2024/01/03 06:24:46;;;;;;;7.13;3.78;;;;;;;5.67;98.90;97742.94;5072276;28;20081;-72
2024/01/03 06:27:11;;;;;;;7.75;3.67;;;;;;;5.65;98.80;97711.34;5072197;28;20051;-71
2024/01/03 06:29:39;;;;;;;7.60;4.18;;;;;;;5.61;98.76;97690.16;5069187;28;20111;-69
2024/01/03 06:32:05;;;;;;;7.07;3.63;;;;;;;5.81;99.08;97713.38;5054175;28;20071;-68
2024/01/03 06:34:30;;;;;;;7.35;4.00;;;;;;;5.87;98.98;97720.56;5049293;28;20043;-72
2024/01/03 06:37:00;;;;;;;6.78;3.90;;;;;;;5.89;98.63;97737.50;5054202;28;20035;-72
2024/01/03 06:39:26;;;;;;;7.78;3.58;;;;;;;5.65;98.74;97725.03;5067089;28;20111;-71
2024/01/03 06:41:53;;;;;;;5.88;3.80;;;;;;;5.63;98.53;97739.03;5053393;28;20028;-72
2024/01/03 06:44:21;;;;;;;6.97;3.80;;;;;;;5.51;99.08;97738.31;5072907;28;20135;-69
2024/01/03 06:46:47;;;;;;;7.65;4.30;;;;;;;5.46;99.47;97723.25;5068082;28;20108;-69
2024/01/03 06:49:14;;;;;;;7.28;3.90;;;;;;;5.62;99.08;97742.53;5053287;28;20539;-70
2024/01/03 06:51:45;;;;;;;6.57;3.63;;;;;;;5.71;98.65;97734.00;5077819;28;20098;-69
2024/01/03 06:54:11;;;;;;;7.00;3.70;;;;;;;5.64;98.76;97744.06;5058061;28;20599;-70
2024/01/03 06:56:36;;;;;;;7.25;3.72;;;;;;;5.39;98.79;97704.13;5056958;28;20039;-72
2024/01/03 06:59:01;;;;;;;8.20;3.92;;;;;;;5.52;99.46;97701.28;5054986;28;20035;-72
2024/01/03 07:01:27;;;;;;;8.00;4.18;;;;;;;5.41;100.00;97743.47;5060291;28;20040;-71
2024/01/03 07:03:52;;;;;;;7.28;4.18;;;;;;;5.56;99.63;97756.78;5048774;28;20340;-72
2024/01/03 07:06:20;;;;;;;6.13;3.83;;;;;;;5.26;99.16;97665.72;5053218;28;20036;-72
2024/01/03 07:08:47;;;;;;;6.65;3.97;;;;;;;5.51;100.00;97764.94;5055594;28;20119;-72
2024/01/03 07:11:14;;;;;;;6.85;4.03;;;;;;;5.20;100.00;97672.22;5067745;28;20616;-70
2024/01/03 07:13:44;;;;;;;7.28;3.90;;;;;;;5.42;100.00;97709.03;5066186;28;20551;-70
2024/01/03 07:16:11;;;;;;;7.82;4.45;;;;;;;5.59;100.00;97774.59;5074862;28;20036;-68
2024/01/03 07:18:37;;;;;;;9.80;4.68;;;;;;;5.47;100.00;97735.19;5066922;28;20036;-70
2024/01/03 07:21:02;;;;;;;9.07;4.10;;;;;;;5.36;100.00;97745.63;5058396;28;20131;-70
2024/01/03 07:23:30;;;;;;;7.22;4.10;;;;;;;5.42;100.00;97763.16;5066068;28;20455;-72
2024/01/03 07:25:58;;;;;;;7.53;3.75;;;;;;;5.19;100.00;97698.94;5052303;28;20039;-68
2024/01/03 07:28:23;;;;;;;7.60;3.75;;;;;;;5.44;100.00;97750.94;5059691;28;20032;-72
2024/01/03 07:30:48;;;;;;;6.35;3.47;;;;;;;5.58;100.00;97749.72;5055464;28;20028;-74
2024/01/03 07:33:16;;;;;;;6.72;3.38;;;;;;;5.26;100.00;97729.34;5077656;28;20482;-70
2024/01/03 07:35:44;;;;;;;8.02;3.30;;;;;;;5.23;100.00;97748.44;5052212;28;20030;-71
2024/01/03 07:38:12;;;;;;;7.53;3.80;;;;;;;5.25;100.00;97748.31;5064304;28;20036;-68
2024/01/03 07:40:37;;;;;;;8.40;3.38;;;;;;;5.43;100.00;97758.81;5050968;28;20040;-71
2024/01/03 07:43:05;;;;;;;7.25;3.53;;;;;;;5.31;100.00;97740.03;5066670;28;20493;-72
2024/01/03 07:45:30;;;;;;;6.82;3.33;;;;;;;5.36;100.00;97774.78;5069755;28;20371;-67
2024/01/03 07:47:58;;;;;;;8.32;3.55;;;;;;;5.08;100.00;97736.88;5047522;28;20027;-69
2024/01/03 07:50:28;;;;;;;5.32;3.13;;;;;;;5.42;100.00;97764.91;5072898;28;20042;-71
2024/01/03 07:52:56;;;;;;;6.93;3.72;;;;;;;5.30;100.00;97753.91;5066777;28;20024;-73
2024/01/03 07:55:23;;;;;;;8.75;3.38;;;;;;;5.39;100.00;97764.22;5053566;28;20478;-69
2024/01/03 07:57:51;;;;;;;6.53;3.30;;;;;;;5.13;100.00;97709.78;5074200;28;20028;-69
2024/01/03 08:00:17;;;;;;;7.88;3.53;;;;;;;5.47;100.00;97771.28;5069280;28;20040;-69
2024/01/03 08:02:42;;;;;;;6.05;3.25;;;;;;;5.38;100.00;97769.50;5068767;28;20039;-70
2024/01/03 08:05:10;;;;;;;7.93;3.97;;;;;;;5.38;100.00;97765.19;5052796;28;20140;-69
2024/01/03 08:07:36;;;;;;;7.38;3.92;;;;;;;5.24;100.00;97762.97;5055604;28;20060;-71
2024/01/03 08:10:04;;;;;;;6.70;3.70;;;;;;;5.24;100.00;97744.09;5058770;28;20446;-70
2024/01/03 08:12:30;;;;;;;6.68;3.50;;;;;;;5.13;100.00;97748.44;5072878;28;20265;-69
2024/01/03 08:14:57;;;;;;;6.63;4.00;;;;;;;5.17;100.00;97738.69;5050384;28;20565;-73
2024/01/03 08:17:23;;;;;;;7.30;3.70;;;;;;;4.94;100.00;97702.00;5057235;28;20028;-71
2024/01/03 08:19:48;;;;;;;8.20;3.55;;;;;;;5.20;100.00;97757.28;5054324;28;20036;-74
2024/01/03 08:22:14;;;;;;;6.13;3.33;;;;;;;5.19;100.00;97750.47;5053863;28;20847;-69
2024/01/03 08:24:40;;;;;;;7.80;3.58;;;;;;;5.16;100.00;97752.50;5059389;28;20033;-70
2024/01/03 08:27:05;;;;;;;6.18;3.00;;;;;;;5.22;100.00;97758.88;5054858;28;20038;-71
2024/01/03 08:29:30;;;;;;;6.70;3.20;;;;;;;4.94;100.00;97709.72;5075990;28;21676;-72
2024/01/03 08:31:56;;;;;;;9.05;4.60;;;;;;;5.09;100.00;97759.97;5052616;28;20036;-73
2024/01/03 08:34:22;;;;;;;8.70;4.60;;;;;;;5.18;100.00;97766.91;5070757;28;20028;-71
2024/01/03 08:36:49;;;;;;;10.25;4.97;;;;;;;5.17;100.00;97769.59;5071224;28;20028;-70
2024/01/03 08:39:15;;;;;;;8.80;4.40;;;;;;;4.80;100.00;97706.56;5067358;28;20035;-69
2024/01/03 08:41:40;;;;;;;9.35;4.63;;;;;;;5.15;100.00;97763.78;5073456;28;20040;-68
2024/01/03 08:44:08;;;;;;;8.68;4.57;;;;;;;5.22;100.00;97771.78;5069233;28;20031;-71
2024/01/03 08:46:42;;;;;;;10.18;5.18;;;;;;;5.19;100.00;97768.50;5072675;28;20541;-67
2024/01/03 08:49:08;;;;;;;15.82;5.78;;;;;;;5.19;100.00;97773.66;5050659;28;20043;-71
2024/01/03 08:51:34;;;;;;;20.52;6.70;;;;;;;5.17;100.00;97774.75;5054966;28;20047;-70
2024/01/03 08:54:02;;;;;;;23.52;8.05;;;;;;;5.17;100.00;97775.56;5076810;28;20147;-67
2024/01/03 08:56:27;;;;;;;16.85;5.78;;;;;;;5.16;100.00;97762.81;5065198;28;20039;-69
2024/01/03 08:58:55;;;;;;;20.23;8.18;;;;;;;4.91;100.00;97730.56;5078332;28;20039;-72
2024/01/03 09:01:27;;;;;;;8.05;4.47;;;;;;;5.34;100.00;97773.31;5054721;28;20189;-70
2024/01/03 09:03:53;;;;;;;8.20;4.25;;;;;;;5.26;100.00;97779.13;5079503;28;20028;-71
2024/01/03 09:06:20;;;;;;;7.80;4.55;;;;;;;5.29;100.00;97775.47;5051101;28;20055;-71
2024/01/03 09:08:46;;;;;;;8.32;4.90;;;;;;;5.09;100.00;97741.91;5059070;28;20021;-68
2024/01/03 09:11:12;;;;;;;8.82;5.47;;;;;;;5.34;100.00;97788.78;5057841;28;20024;-68
2024/01/03 09:13:43;;;;;;;9.65;5.47;;;;;;;5.29;100.00;97778.03;5068973;28;20070;-71
2024/01/03 09:16:14;;;;;;;9.35;4.18;;;;;;;5.36;100.00;97777.38;5050212;28;20096;-72
2024/01/03 09:18:40;;;;;;;9.10;4.53;;;;;;;5.52;100.00;97794.91;5069495;28;20531;-70
2024/01/03 09:21:07;;;;;;;7.50;4.10;;;;;;;5.60;100.00;97794.25;5065411;28;20036;-71
2024/01/03 09:23:33;;;;;;;8.77;3.97;;;;;;;5.55;100.00;97799.81;5067009;28;20060;-71
2024/01/03 09:26:00;;;;;;;8.88;4.65;;;;;;;5.64;100.00;97795.63;5068204;28;20136;-69
2024/01/03 09:28:26;;;;;;;7.80;4.97;;;;;;;5.67;100.00;97797.13;5052368;28;20761;-70
2024/01/03 09:30:51;;;;;;;9.52;5.40;;;;;;;5.74;100.00;97791.28;5054601;28;20025;-68
2024/01/03 09:33:17;;;;;;;8.27;5.10;;;;;;;5.77;100.00;97803.13;5043910;28;20047;-69
2024/01/03 09:35:46;;;;;;;8.73;4.97;;;;;;;5.83;100.00;97810.31;5064121;28;20371;-72
2024/01/03 09:38:13;;;;;;;7.25;4.35;;;;;;;5.93;100.00;97811.16;5054949;28;20705;-69
2024/01/03 09:40:40;;;;;;;8.45;4.72;;;;;;;5.83;99.76;97809.50;5072399;28;20033;-72
2024/01/03 09:43:05;;;;;;;6.82;3.92;;;;;;;5.85;100.00;97802.44;5051980;28;20020;-71
2024/01/03 09:45:34;;;;;;;7.05;4.10;;;;;;;5.86;100.00;97804.88;5053841;28;20603;-69
2024/01/03 09:48:00;;;;;;;9.82;4.15;;;;;;;5.88;100.00;97804.75;5053065;28;20537;-69
2024/01/03 09:50:25;;;;;;;9.23;4.28;;;;;;;5.76;100.00;97773.09;5073429;28;20041;-71
2024/01/03 09:52:52;;;;;;;7.22;3.63;;;;;;;5.96;99.78;97817.81;5054403;28;20036;-71
2024/01/03 09:55:20;;;;;;;11.25;6.15;;;;;;;5.81;98.50;97812.22;5053382;28;20054;-70
2024/01/03 09:57:47;;;;;;;8.52;5.10;;;;;;;5.62;98.72;97770.91;5076110;28;20027;-72
2024/01/03 10:00:12;;;;;;;8.48;4.50;;;;;;;5.83;99.42;97804.34;5053567;28;20049;-71
2024/01/03 10:06:13;;;;;;;6.68;3.85;;;;;;;5.44;99.49;97763.00;5054708;28;20035;-68
2024/01/03 10:08:40;;;;;;;6.28;3.33;;;;;;;5.65;98.30;97804.97;5054728;28;20087;-70
2024/01/03 10:11:19;;;;;;;6.75;3.53;;;;;;;5.80;97.20;97804.59;5051847;28;20037;-70
2024/01/03 10:13:48;;;;;;;6.15;3.15;;;;;;;6.03;96.35;97800.03;5054101;28;20035;-71
2024/01/03 10:16:21;;;;;;;6.57;3.43;;;;;;;5.91;96.74;97787.25;5052202;28;20028;-71
2024/01/03 10:18:47;;;;;;;6.30;3.10;;;;;;;5.73;96.13;97738.09;5068374;28;20021;-68
2024/01/03 10:21:16;;;;;;;7.40;3.13;;;;;;;6.06;94.98;97785.09;5068918;28;20681;-69
2024/01/03 10:23:45;;;;;;;8.00;3.97;;;;;;;5.88;94.04;97741.06;5051017;28;20106;-71
2024/01/03 10:26:15;;;;;;;5.20;2.50;;;;;;;6.25;93.89;97779.09;5069921;28;20028;-67
2024/01/03 10:28:40;;;;;;;5.80;2.40;;;;;;;6.28;94.36;97781.41;5075184;28;20126;-69
2024/01/03 10:31:08;;;;;;;5.10;2.13;;;;;;;6.37;93.27;97776.34;5052528;28;20028;-70
2024/01/03 10:33:33;;;;;;;5.20;2.22;;;;;;;6.37;90.68;97778.94;5057716;28;20023;-69
2024/01/03 10:36:10;;;;;;;4.75;2.00;;;;;;;6.47;90.13;97785.72;5073014;28;20028;-70
2024/01/03 10:38:37;;;;;;;5.18;2.38;;;;;;;6.61;90.40;97786.22;5068022;28;20109;-68
2024/01/03 10:41:02;;;;;;;5.78;2.05;;;;;;;6.78;88.07;97785.50;5070562;28;20069;-69
2024/01/03 10:43:30;;;;;;;5.72;2.15;;;;;;;6.89;90.79;97782.75;5066674;28;20072;-71
2024/01/03 10:45:57;;;;;;;5.88;2.80;;;;;;;6.81;94.44;97794.75;5067831;28;20044;-71
2024/01/03 10:48:25;;;;;;;7.15;2.90;;;;;;;6.70;92.63;97783.63;5052711;28;20126;-70
2024/01/03 10:50:50;;;;;;;6.47;3.45;;;;;;;6.71;94.14;97782.66;5055218;28;20502;-71
2024/01/03 10:53:18;;;;;;;5.88;3.50;;;;;;;6.76;95.75;97776.28;5076576;28;20040;-71
2024/01/03 10:55:47;;;;;;;7.28;3.75;;;;;;;6.59;96.34;97731.31;5076921;28;20150;-71
2024/01/03 10:58:18;;;;;;;6.03;3.10;;;;;;;6.85;94.85;97785.78;5079297;28;20040;-73
2024/01/03 11:01:08;;;;;;;6.20;3.00;;;;;;;6.87;93.76;97786.44;5050730;28;20047;-69
2024/01/03 11:03:43;;;;;;;7.40;2.58;;;;;;;6.80;92.24;97775.84;5072356;28;20023;-69
2024/01/03 11:06:19;;;;;;;5.75;3.03;;;;;;;6.53;92.83;97736.13;5062246;28;20028;-70
2024/01/03 11:08:50;;;;;;;5.43;2.60;;;;;;;6.88;95.04;97777.72;5067596;28;20055;-70
2024/01/03 11:11:32;;;;;;;8.25;2.65;;;;;;;6.99;93.81;97756.88;5053819;28;20059;-70
2024/01/03 11:13:58;;;;;;;6.05;2.13;;;;;;;6.92;91.86;97750.66;5064841;28;20058;-71
2024/01/03 11:16:37;;;;;;;6.07;2.72;;;;;;;7.07;96.05;97744.06;5069082;28;20028;-70
2024/01/03 11:19:04;;;;;;;6.10;3.03;;;;;;;7.01;96.43;97749.81;5074565;28;20031;-71
2024/01/03 11:21:34;;;;;;;6.22;2.83;;;;;;;7.08;94.45;97744.84;5069275;28;20086;-69
2024/01/03 11:24:06;;;;;;;8.27;2.72;;;;;;;7.10;94.64;97735.19;5066353;28;20672;-72
2024/01/03 11:26:53;;;;;;;5.53;2.67;;;;;;;7.03;93.87;97703.94;5055437;28;20036;-73
2024/01/03 11:29:34;;;;;;;5.35;2.75;;;;;;;7.22;91.25;97728.88;5044592;28;20157;-67
2024/01/03 11:32:02;;;;;;;5.05;1.92;;;;;;;7.26;89.59;97722.44;5060383;28;20066;-71
2024/01/03 11:34:42;;;;;;;5.68;2.30;;;;;;;7.39;90.18;97723.88;5065900;28;20058;-71
2024/01/03 11:37:11;;;;;;;7.85;2.22;;;;;;;7.55;88.06;97720.63;5060507;28;20044;-70
2024/01/03 11:39:49;;;;;;;5.78;2.63;;;;;;;7.57;88.98;97691.06;5064908;28;20181;-71
2024/01/03 11:42:34;;;;;;;5.80;2.60;;;;;;;7.58;89.85;97699.66;5049869;28;20143;-70